sensor_id;sensor_type;location;lat;lon;timestamp;P1;durP1;ratioP1;P2;durP2;ratioP2
7683;SDS011;3884;48.616;12.872;2023-12-28T00:00:09;12.23;;;9.40;;
7683;SDS011;3884;48.616;12.872;2023-12-28T00:02:36;13.57;;;10.90;;
7683;SDS011;3884;48.616;12.872;2023-12-28T00:05:07;13.90;;;9.13;;
7683;SDS011;3884;48.616;12.872;2023-12-28T00:07:34;12.23;;;10.50;;
7683;SDS011;3884;48.616;12.872;2023-12-28T00:10:01;14.00;;;11.93;;
7683;SDS011;3884;48.616;12.872;2023-12-28T00:12:28;14.13;;;10.47;;
7683;SDS011;3884;48.616;12.872;2023-12-28T00:14:55;13.53;;;10.33;;
7683;SDS011;3884;48.616;12.872;2023-12-28T00:17:22;12.67;;;10.00;;
7683;SDS011;3884;48.616;12.872;2023-12-28T00:19:49;13.40;;;11.77;;
7683;SDS011;3884;48.616;12.872;2023-12-28T00:22:18;16.87;;;13.13;;
7683;SDS011;3884;48.616;12.872;2023-12-28T00:24:45;14.97;;;11.03;;
7683;SDS011;3884;48.616;12.872;2023-12-28T00:27:12;13.57;;;11.23;;
7683;SDS011;3884;48.616;12.872;2023-12-28T00:29:39;14.43;;;10.90;;
7683;SDS011;3884;48.616;12.872;2023-12-28T00:32:08;16.37;;;12.80;;
7683;SDS011;3884;48.616;12.872;2023-12-28T00:34:35;16.73;;;12.63;;
7683;SDS011;3884;48.616;12.872;2023-12-28T00:37:02;15.60;;;12.43;;
7683;SDS011;3884;48.616;12.872;2023-12-28T00:39:31;16.07;;;12.20;;
7683;SDS011;3884;48.616;12.872;2023-12-28T00:41:59;15.77;;;12.57;;
7683;SDS011;3884;48.616;12.872;2023-12-28T00:44:26;18.57;;;12.73;;
7683;SDS011;3884;48.616;12.872;2023-12-28T00:46:53;15.73;;;12.47;;
7683;SDS011;3884;48.616;12.872;2023-12-28T00:49:20;16.53;;;12.67;;
7683;SDS011;3884;48.616;12.872;2023-12-28T00:51:47;14.67;;;11.37;;
7683;SDS011;3884;48.616;12.872;2023-12-28T00:54:14;16.03;;;13.53;;
7683;SDS011;3884;48.616;12.872;2023-12-28T00:56:42;16.63;;;12.47;;
7683;SDS011;3884;48.616;12.872;2023-12-28T00:59:09;14.73;;;11.97;;
7683;SDS011;3884;48.616;12.872;2023-12-28T01:01:36;15.90;;;13.20;;
7683;SDS011;3884;48.616;12.872;2023-12-28T01:04:03;16.80;;;13.13;;
7683;SDS011;3884;48.616;12.872;2023-12-28T01:06:30;18.63;;;13.03;;
7683;SDS011;3884;48.616;12.872;2023-12-28T01:08:57;16.30;;;11.80;;
7683;SDS011;3884;48.616;12.872;2023-12-28T01:11:24;14.93;;;12.33;;
7683;SDS011;3884;48.616;12.872;2023-12-28T01:13:53;14.30;;;12.17;;
7683;SDS011;3884;48.616;12.872;2023-12-28T01:16:20;16.07;;;11.47;;
7683;SDS011;3884;48.616;12.872;2023-12-28T01:18:47;15.70;;;11.57;;
7683;SDS011;3884;48.616;12.872;2023-12-28T01:21:14;15.73;;;11.90;;
7683;SDS011;3884;48.616;12.872;2023-12-28T01:23:42;13.23;;;11.63;;
7683;SDS011;3884;48.616;12.872;2023-12-28T01:26:12;13.63;;;11.30;;
7683;SDS011;3884;48.616;12.872;2023-12-28T01:28:39;18.17;;;15.50;;
7683;SDS011;3884;48.616;12.872;2023-12-28T01:31:09;17.83;;;14.63;;
7683;SDS011;3884;48.616;12.872;2023-12-28T01:33:36;16.63;;;12.50;;
7683;SDS011;3884;48.616;12.872;2023-12-28T01:36:13;13.07;;;11.67;;
7683;SDS011;3884;48.616;12.872;2023-12-28T01:38:44;15.43;;;11.20;;
7683;SDS011;3884;48.616;12.872;2023-12-28T01:41:11;16.37;;;12.60;;
7683;SDS011;3884;48.616;12.872;2023-12-28T01:43:40;15.90;;;11.90;;
7683;SDS011;3884;48.616;12.872;2023-12-28T01:46:10;18.80;;;15.20;;
7683;SDS011;3884;48.616;12.872;2023-12-28T01:48:42;24.00;;;21.43;;
7683;SDS011;3884;48.616;12.872;2023-12-28T01:51:11;17.40;;;13.87;;
7683;SDS011;3884;48.616;12.872;2023-12-28T01:53:40;15.47;;;12.20;;
7683;SDS011;3884;48.616;12.872;2023-12-28T01:56:07;14.77;;;11.83;;
7683;SDS011;3884;48.616;12.872;2023-12-28T01:58:35;14.47;;;11.67;;
7683;SDS011;3884;48.616;12.872;2023-12-28T02:01:05;13.70;;;11.73;;
7683;SDS011;3884;48.616;12.872;2023-12-28T02:03:34;16.07;;;12.50;;
7683;SDS011;3884;48.616;12.872;2023-12-28T02:06:01;16.03;;;12.57;;
7683;SDS011;3884;48.616;12.872;2023-12-28T02:08:29;16.13;;;11.93;;
7683;SDS011;3884;48.616;12.872;2023-12-28T02:10:56;14.73;;;12.17;;
7683;SDS011;3884;48.616;12.872;2023-12-28T02:13:23;16.57;;;12.10;;
7683;SDS011;3884;48.616;12.872;2023-12-28T02:15:51;13.20;;;11.53;;
7683;SDS011;3884;48.616;12.872;2023-12-28T02:18:25;13.17;;;10.67;;
7683;SDS011;3884;48.616;12.872;2023-12-28T02:20:59;15.67;;;12.17;;
7683;SDS011;3884;48.616;12.872;2023-12-28T02:23:29;17.67;;;11.70;;
7683;SDS011;3884;48.616;12.872;2023-12-28T02:26:00;17.60;;;12.33;;
7683;SDS011;3884;48.616;12.872;2023-12-28T02:28:27;15.53;;;12.07;;
7683;SDS011;3884;48.616;12.872;2023-12-28T02:30:54;13.97;;;11.77;;
7683;SDS011;3884;48.616;12.872;2023-12-28T02:33:24;14.00;;;12.30;;
7683;SDS011;3884;48.616;12.872;2023-12-28T02:35:57;14.57;;;12.50;;
7683;SDS011;3884;48.616;12.872;2023-12-28T02:38:26;14.97;;;12.53;;
7683;SDS011;3884;48.616;12.872;2023-12-28T02:40:55;16.50;;;12.17;;
7683;SDS011;3884;48.616;12.872;2023-12-28T02:43:25;15.43;;;12.67;;
7683;SDS011;3884;48.616;12.872;2023-12-28T02:45:52;17.27;;;12.80;;
7683;SDS011;3884;48.616;12.872;2023-12-28T02:48:20;17.80;;;13.90;;
7683;SDS011;3884;48.616;12.872;2023-12-28T02:50:47;18.40;;;15.33;;
7683;SDS011;3884;48.616;12.872;2023-12-28T02:53:14;17.17;;;13.70;;
7683;SDS011;3884;48.616;12.872;2023-12-28T02:55:41;17.57;;;13.70;;
7683;SDS011;3884;48.616;12.872;2023-12-28T02:58:08;18.03;;;13.03;;
7683;SDS011;3884;48.616;12.872;2023-12-28T03:00:37;14.20;;;12.70;;
7683;SDS011;3884;48.616;12.872;2023-12-28T03:03:03;20.20;;;17.57;;
7683;SDS011;3884;48.616;12.872;2023-12-28T03:05:30;15.77;;;12.30;;
7683;SDS011;3884;48.616;12.872;2023-12-28T03:07:57;14.20;;;12.23;;
7683;SDS011;3884;48.616;12.872;2023-12-28T03:10:24;15.27;;;12.30;;
7683;SDS011;3884;48.616;12.872;2023-12-28T03:12:51;14.10;;;11.80;;
7683;SDS011;3884;48.616;12.872;2023-12-28T03:15:18;18.13;;;13.70;;
7683;SDS011;3884;48.616;12.872;2023-12-28T03:17:47;19.00;;;13.73;;
7683;SDS011;3884;48.616;12.872;2023-12-28T03:20:14;18.87;;;14.20;;
7683;SDS011;3884;48.616;12.872;2023-12-28T03:22:42;16.83;;;13.73;;
7683;SDS011;3884;48.616;12.872;2023-12-28T03:25:09;18.40;;;13.83;;
7683;SDS011;3884;48.616;12.872;2023-12-28T03:27:36;16.70;;;12.70;;
7683;SDS011;3884;48.616;12.872;2023-12-28T03:30:04;16.37;;;12.30;;
7683;SDS011;3884;48.616;12.872;2023-12-28T03:32:32;13.10;;;11.63;;
7683;SDS011;3884;48.616;12.872;2023-12-28T03:35:01;17.60;;;12.00;;
7683;SDS011;3884;48.616;12.872;2023-12-28T03:37:28;15.93;;;12.70;;
7683;SDS011;3884;48.616;12.872;2023-12-28T03:39:55;15.40;;;12.77;;
7683;SDS011;3884;48.616;12.872;2023-12-28T03:42:22;18.83;;;13.93;;
7683;SDS011;3884;48.616;12.872;2023-12-28T03:44:49;16.20;;;13.00;;
7683;SDS011;3884;48.616;12.872;2023-12-28T03:47:15;15.17;;;12.00;;
7683;SDS011;3884;48.616;12.872;2023-12-28T03:49:43;15.60;;;12.53;;
7683;SDS011;3884;48.616;12.872;2023-12-28T03:52:13;15.20;;;11.20;;
7683;SDS011;3884;48.616;12.872;2023-12-28T03:54:40;16.57;;;12.37;;
7683;SDS011;3884;48.616;12.872;2023-12-28T03:57:07;14.90;;;12.40;;
7683;SDS011;3884;48.616;12.872;2023-12-28T03:59:35;14.20;;;12.67;;
7683;SDS011;3884;48.616;12.872;2023-12-28T04:02:02;16.63;;;12.67;;
7683;SDS011;3884;48.616;12.872;2023-12-28T04:04:29;16.17;;;12.73;;
7683;SDS011;3884;48.616;12.872;2023-12-28T04:06:56;19.13;;;14.23;;
7683;SDS011;3884;48.616;12.872;2023-12-28T04:09:25;18.50;;;14.70;;
7683;SDS011;3884;48.616;12.872;2023-12-28T04:11:54;18.70;;;14.17;;
7683;SDS011;3884;48.616;12.872;2023-12-28T04:14:21;19.50;;;14.13;;
7683;SDS011;3884;48.616;12.872;2023-12-28T04:16:48;19.37;;;15.33;;
7683;SDS011;3884;48.616;12.872;2023-12-28T04:19:15;18.93;;;14.83;;
7683;SDS011;3884;48.616;12.872;2023-12-28T04:21:42;18.97;;;14.40;;
7683;SDS011;3884;48.616;12.872;2023-12-28T04:24:09;18.57;;;15.00;;
7683;SDS011;3884;48.616;12.872;2023-12-28T04:26:39;17.23;;;13.30;;
7683;SDS011;3884;48.616;12.872;2023-12-28T04:29:06;19.03;;;14.37;;
7683;SDS011;3884;48.616;12.872;2023-12-28T04:31:33;17.07;;;13.67;;
7683;SDS011;3884;48.616;12.872;2023-12-28T04:34:05;17.40;;;14.23;;
7683;SDS011;3884;48.616;12.872;2023-12-28T04:36:32;15.60;;;13.13;;
7683;SDS011;3884;48.616;12.872;2023-12-28T04:39:05;16.77;;;13.73;;
7683;SDS011;3884;48.616;12.872;2023-12-28T04:41:33;18.57;;;15.03;;
7683;SDS011;3884;48.616;12.872;2023-12-28T04:44:02;16.77;;;14.47;;
7683;SDS011;3884;48.616;12.872;2023-12-28T04:46:29;17.03;;;13.57;;
7683;SDS011;3884;48.616;12.872;2023-12-28T04:48:56;16.33;;;13.40;;
7683;SDS011;3884;48.616;12.872;2023-12-28T04:51:24;15.83;;;13.03;;
7683;SDS011;3884;48.616;12.872;2023-12-28T04:53:51;17.67;;;14.17;;
7683;SDS011;3884;48.616;12.872;2023-12-28T04:56:18;19.47;;;14.73;;
7683;SDS011;3884;48.616;12.872;2023-12-28T04:58:45;19.43;;;15.43;;
7683;SDS011;3884;48.616;12.872;2023-12-28T05:01:14;19.73;;;14.50;;
7683;SDS011;3884;48.616;12.872;2023-12-28T05:03:41;16.77;;;13.97;;
7683;SDS011;3884;48.616;12.872;2023-12-28T05:06:08;19.23;;;15.50;;
7683;SDS011;3884;48.616;12.872;2023-12-28T05:08:36;17.77;;;14.13;;
7683;SDS011;3884;48.616;12.872;2023-12-28T05:11:03;17.73;;;14.23;;
7683;SDS011;3884;48.616;12.872;2023-12-28T05:13:31;16.90;;;13.90;;
7683;SDS011;3884;48.616;12.872;2023-12-28T05:16:00;16.63;;;13.03;;
7683;SDS011;3884;48.616;12.872;2023-12-28T05:18:29;16.83;;;13.47;;
7683;SDS011;3884;48.616;12.872;2023-12-28T05:20:56;17.27;;;13.33;;
7683;SDS011;3884;48.616;12.872;2023-12-28T05:23:23;16.07;;;13.20;;
7683;SDS011;3884;48.616;12.872;2023-12-28T05:25:51;15.50;;;12.80;;
7683;SDS011;3884;48.616;12.872;2023-12-28T05:28:18;17.33;;;13.57;;
7683;SDS011;3884;48.616;12.872;2023-12-28T05:30:44;21.80;;;14.60;;
7683;SDS011;3884;48.616;12.872;2023-12-28T05:33:11;17.70;;;13.33;;
7683;SDS011;3884;48.616;12.872;2023-12-28T05:35:40;16.57;;;12.80;;
7683;SDS011;3884;48.616;12.872;2023-12-28T05:38:07;17.40;;;13.47;;
7683;SDS011;3884;48.616;12.872;2023-12-28T05:40:36;17.57;;;12.97;;
7683;SDS011;3884;48.616;12.872;2023-12-28T05:43:03;14.77;;;12.80;;
7683;SDS011;3884;48.616;12.872;2023-12-28T05:45:30;14.70;;;12.67;;
7683;SDS011;3884;48.616;12.872;2023-12-28T05:47:57;15.97;;;13.07;;
7683;SDS011;3884;48.616;12.872;2023-12-28T05:50:24;16.43;;;12.87;;
7683;SDS011;3884;48.616;12.872;2023-12-28T05:52:52;13.90;;;11.83;;
7683;SDS011;3884;48.616;12.872;2023-12-28T05:55:20;14.50;;;11.90;;
7683;SDS011;3884;48.616;12.872;2023-12-28T05:57:47;16.03;;;13.07;;
7683;SDS011;3884;48.616;12.872;2023-12-28T06:00:14;17.47;;;13.10;;
7683;SDS011;3884;48.616;12.872;2023-12-28T06:02:41;18.17;;;14.30;;
7683;SDS011;3884;48.616;12.872;2023-12-28T06:05:08;15.07;;;12.93;;
7683;SDS011;3884;48.616;12.872;2023-12-28T06:07:35;17.07;;;14.07;;
7683;SDS011;3884;48.616;12.872;2023-12-28T06:10:05;19.30;;;14.13;;
7683;SDS011;3884;48.616;12.872;2023-12-28T06:12:32;14.97;;;12.70;;
7683;SDS011;3884;48.616;12.872;2023-12-28T06:14:59;15.83;;;12.50;;
7683;SDS011;3884;48.616;12.872;2023-12-28T06:17:27;16.33;;;13.23;;
7683;SDS011;3884;48.616;12.872;2023-12-28T06:19:54;17.13;;;12.63;;
7683;SDS011;3884;48.616;12.872;2023-12-28T06:22:21;14.07;;;11.80;;
7683;SDS011;3884;48.616;12.872;2023-12-28T06:24:52;16.00;;;13.13;;
7683;SDS011;3884;48.616;12.872;2023-12-28T06:27:20;28.10;;;21.33;;
7683;SDS011;3884;48.616;12.872;2023-12-28T06:29:50;34.60;;;24.03;;
7683;SDS011;3884;48.616;12.872;2023-12-28T06:32:17;16.70;;;14.20;;
7683;SDS011;3884;48.616;12.872;2023-12-28T06:34:44;23.17;;;17.30;;
7683;SDS011;3884;48.616;12.872;2023-12-28T06:37:11;24.47;;;20.33;;
7683;SDS011;3884;48.616;12.872;2023-12-28T06:39:38;26.83;;;19.70;;
7683;SDS011;3884;48.616;12.872;2023-12-28T06:42:05;23.57;;;19.00;;
7683;SDS011;3884;48.616;12.872;2023-12-28T06:44:34;25.13;;;20.10;;
7683;SDS011;3884;48.616;12.872;2023-12-28T06:47:01;25.60;;;21.07;;
7683;SDS011;3884;48.616;12.872;2023-12-28T06:49:28;25.43;;;20.23;;
7683;SDS011;3884;48.616;12.872;2023-12-28T06:51:55;25.23;;;19.47;;
7683;SDS011;3884;48.616;12.872;2023-12-28T06:54:22;30.80;;;23.13;;
7683;SDS011;3884;48.616;12.872;2023-12-28T06:56:49;31.73;;;24.03;;
7683;SDS011;3884;48.616;12.872;2023-12-28T06:59:17;25.37;;;20.20;;
7683;SDS011;3884;48.616;12.872;2023-12-28T07:01:45;26.83;;;19.53;;
7683;SDS011;3884;48.616;12.872;2023-12-28T07:04:13;26.10;;;19.90;;
7683;SDS011;3884;48.616;12.872;2023-12-28T07:06:40;29.90;;;22.40;;
7683;SDS011;3884;48.616;12.872;2023-12-28T07:09:07;27.70;;;22.07;;
7683;SDS011;3884;48.616;12.872;2023-12-28T07:11:34;24.27;;;19.70;;
7683;SDS011;3884;48.616;12.872;2023-12-28T07:14:02;24.50;;;17.43;;
7683;SDS011;3884;48.616;12.872;2023-12-28T07:16:28;20.70;;;15.97;;
7683;SDS011;3884;48.616;12.872;2023-12-28T07:18:58;20.33;;;15.97;;
7683;SDS011;3884;48.616;12.872;2023-12-28T07:21:25;18.97;;;15.83;;
7683;SDS011;3884;48.616;12.872;2023-12-28T07:23:52;22.07;;;16.97;;
7683;SDS011;3884;48.616;12.872;2023-12-28T07:26:20;22.13;;;18.33;;
7683;SDS011;3884;48.616;12.872;2023-12-28T07:28:46;23.93;;;19.67;;
7683;SDS011;3884;48.616;12.872;2023-12-28T07:31:21;24.60;;;19.17;;
7683;SDS011;3884;48.616;12.872;2023-12-28T07:33:49;26.10;;;20.53;;
7683;SDS011;3884;48.616;12.872;2023-12-28T07:36:17;30.47;;;21.60;;
7683;SDS011;3884;48.616;12.872;2023-12-28T07:38:44;85.30;;;54.83;;
7683;SDS011;3884;48.616;12.872;2023-12-28T07:41:11;61.07;;;43.90;;
7683;SDS011;3884;48.616;12.872;2023-12-28T07:43:38;55.40;;;38.40;;
7683;SDS011;3884;48.616;12.872;2023-12-28T07:46:05;53.37;;;39.17;;
7683;SDS011;3884;48.616;12.872;2023-12-28T07:48:33;35.00;;;28.87;;
7683;SDS011;3884;48.616;12.872;2023-12-28T07:51:03;37.03;;;27.67;;
7683;SDS011;3884;48.616;12.872;2023-12-28T07:53:33;42.63;;;32.37;;
7683;SDS011;3884;48.616;12.872;2023-12-28T07:56:00;36.17;;;28.27;;
7683;SDS011;3884;48.616;12.872;2023-12-28T07:58:27;36.37;;;26.40;;
7683;SDS011;3884;48.616;12.872;2023-12-28T08:00:54;29.20;;;23.47;;
7683;SDS011;3884;48.616;12.872;2023-12-28T08:03:21;28.87;;;23.87;;
7683;SDS011;3884;48.616;12.872;2023-12-28T08:05:48;33.83;;;26.03;;
7683;SDS011;3884;48.616;12.872;2023-12-28T08:08:15;45.30;;;33.40;;
7683;SDS011;3884;48.616;12.872;2023-12-28T08:10:44;35.90;;;29.20;;
7683;SDS011;3884;48.616;12.872;2023-12-28T08:13:11;42.00;;;35.23;;
7683;SDS011;3884;48.616;12.872;2023-12-28T08:15:38;46.17;;;36.83;;
7683;SDS011;3884;48.616;12.872;2023-12-28T08:18:05;34.43;;;29.13;;
7683;SDS011;3884;48.616;12.872;2023-12-28T08:20:33;29.50;;;24.23;;
7683;SDS011;3884;48.616;12.872;2023-12-28T08:22:58;27.63;;;20.77;;
7683;SDS011;3884;48.616;12.872;2023-12-28T08:25:26;26.07;;;20.17;;
7683;SDS011;3884;48.616;12.872;2023-12-28T08:27:54;24.03;;;18.43;;
7683;SDS011;3884;48.616;12.872;2023-12-28T08:30:21;24.77;;;19.50;;
7683;SDS011;3884;48.616;12.872;2023-12-28T08:32:48;23.53;;;19.03;;
7683;SDS011;3884;48.616;12.872;2023-12-28T08:35:16;29.63;;;21.97;;
7683;SDS011;3884;48.616;12.872;2023-12-28T08:37:43;25.57;;;19.87;;
7683;SDS011;3884;48.616;12.872;2023-12-28T08:40:10;22.83;;;17.93;;
7683;SDS011;3884;48.616;12.872;2023-12-28T08:42:37;21.73;;;17.57;;
7683;SDS011;3884;48.616;12.872;2023-12-28T08:45:06;25.20;;;18.00;;
7683;SDS011;3884;48.616;12.872;2023-12-28T08:47:34;21.47;;;17.50;;
7683;SDS011;3884;48.616;12.872;2023-12-28T08:50:01;21.40;;;17.70;;
7683;SDS011;3884;48.616;12.872;2023-12-28T08:52:28;23.03;;;20.03;;
7683;SDS011;3884;48.616;12.872;2023-12-28T08:54:57;25.33;;;20.70;;
7683;SDS011;3884;48.616;12.872;2023-12-28T08:57:26;32.63;;;26.00;;
7683;SDS011;3884;48.616;12.872;2023-12-28T08:59:54;38.73;;;32.20;;
7683;SDS011;3884;48.616;12.872;2023-12-28T09:02:23;42.00;;;30.43;;
7683;SDS011;3884;48.616;12.872;2023-12-28T09:04:50;35.63;;;28.33;;
7683;SDS011;3884;48.616;12.872;2023-12-28T09:07:18;30.97;;;23.43;;
7683;SDS011;3884;48.616;12.872;2023-12-28T09:09:45;31.63;;;22.27;;
7683;SDS011;3884;48.616;12.872;2023-12-28T09:12:12;26.37;;;20.00;;
7683;SDS011;3884;48.616;12.872;2023-12-28T09:14:47;25.87;;;19.43;;
7683;SDS011;3884;48.616;12.872;2023-12-28T09:17:17;33.80;;;23.60;;
7683;SDS011;3884;48.616;12.872;2023-12-28T09:19:46;34.77;;;24.83;;
7683;SDS011;3884;48.616;12.872;2023-12-28T09:22:13;29.70;;;21.43;;
7683;SDS011;3884;48.616;12.872;2023-12-28T09:24:40;29.23;;;22.73;;
7683;SDS011;3884;48.616;12.872;2023-12-28T09:27:07;29.00;;;23.10;;
7683;SDS011;3884;48.616;12.872;2023-12-28T09:29:35;28.40;;;21.77;;
7683;SDS011;3884;48.616;12.872;2023-12-28T09:32:04;24.77;;;18.57;;
7683;SDS011;3884;48.616;12.872;2023-12-28T09:34:31;24.20;;;18.80;;
7683;SDS011;3884;48.616;12.872;2023-12-28T09:37:01;26.13;;;21.53;;
7683;SDS011;3884;48.616;12.872;2023-12-28T09:39:28;22.93;;;17.87;;
7683;SDS011;3884;48.616;12.872;2023-12-28T09:41:58;23.53;;;17.00;;
7683;SDS011;3884;48.616;12.872;2023-12-28T09:44:30;26.60;;;19.57;;
7683;SDS011;3884;48.616;12.872;2023-12-28T09:47:01;37.87;;;27.57;;
7683;SDS011;3884;48.616;12.872;2023-12-28T09:49:30;23.90;;;19.17;;
7683;SDS011;3884;48.616;12.872;2023-12-28T09:51:58;23.17;;;19.87;;
7683;SDS011;3884;48.616;12.872;2023-12-28T09:54:27;22.60;;;18.37;;
7683;SDS011;3884;48.616;12.872;2023-12-28T09:56:55;24.57;;;19.93;;
7683;SDS011;3884;48.616;12.872;2023-12-28T09:59:22;24.77;;;20.27;;
7683;SDS011;3884;48.616;12.872;2023-12-28T10:01:50;23.47;;;18.30;;
7683;SDS011;3884;48.616;12.872;2023-12-28T10:04:17;25.90;;;23.10;;
7683;SDS011;3884;48.616;12.872;2023-12-28T10:06:44;16.10;;;14.33;;
7683;SDS011;3884;48.616;12.872;2023-12-28T10:09:12;15.47;;;12.40;;
7683;SDS011;3884;48.616;12.872;2023-12-28T10:11:40;11.73;;;9.67;;
7683;SDS011;3884;48.616;12.872;2023-12-28T10:14:09;30.23;;;14.13;;
7683;SDS011;3884;48.616;12.872;2023-12-28T10:16:39;10.43;;;8.83;;
7683;SDS011;3884;48.616;12.872;2023-12-28T10:19:07;12.97;;;8.73;;
7683;SDS011;3884;48.616;12.872;2023-12-28T10:21:34;17.43;;;13.90;;
7683;SDS011;3884;48.616;12.872;2023-12-28T10:24:02;14.70;;;13.00;;
7683;SDS011;3884;48.616;12.872;2023-12-28T10:26:29;12.53;;;10.40;;
7683;SDS011;3884;48.616;12.872;2023-12-28T10:29:00;14.07;;;12.20;;
7683;SDS011;3884;48.616;12.872;2023-12-28T10:31:28;12.17;;;10.40;;
7683;SDS011;3884;48.616;12.872;2023-12-28T10:33:57;9.70;;;8.60;;
7683;SDS011;3884;48.616;12.872;2023-12-28T10:36:27;10.90;;;8.67;;
7683;SDS011;3884;48.616;12.872;2023-12-28T10:38:54;11.27;;;9.40;;
7683;SDS011;3884;48.616;12.872;2023-12-28T10:41:29;12.27;;;10.37;;
7683;SDS011;3884;48.616;12.872;2023-12-28T10:44:05;10.67;;;9.17;;
7683;SDS011;3884;48.616;12.872;2023-12-28T10:46:37;21.73;;;16.43;;
7683;SDS011;3884;48.616;12.872;2023-12-28T10:49:09;21.23;;;16.13;;
7683;SDS011;3884;48.616;12.872;2023-12-28T10:51:37;19.10;;;15.70;;
7683;SDS011;3884;48.616;12.872;2023-12-28T10:54:11;16.97;;;12.57;;
7683;SDS011;3884;48.616;12.872;2023-12-28T10:56:49;19.37;;;14.90;;
7683;SDS011;3884;48.616;12.872;2023-12-28T10:59:25;22.93;;;16.77;;
7683;SDS011;3884;48.616;12.872;2023-12-28T11:02:01;18.80;;;15.50;;
7683;SDS011;3884;48.616;12.872;2023-12-28T11:04:33;17.37;;;15.57;;
7683;SDS011;3884;48.616;12.872;2023-12-28T11:07:07;25.23;;;19.03;;
7683;SDS011;3884;48.616;12.872;2023-12-28T11:09:36;21.20;;;16.27;;
7683;SDS011;3884;48.616;12.872;2023-12-28T11:12:05;17.60;;;14.17;;
7683;SDS011;3884;48.616;12.872;2023-12-28T11:14:37;14.77;;;13.03;;
7683;SDS011;3884;48.616;12.872;2023-12-28T11:17:06;13.67;;;12.20;;
7683;SDS011;3884;48.616;12.872;2023-12-28T11:19:32;14.17;;;12.07;;
7683;SDS011;3884;48.616;12.872;2023-12-28T11:22:17;13.83;;;11.10;;
7683;SDS011;3884;48.616;12.872;2023-12-28T11:24:44;11.63;;;10.43;;
7683;SDS011;3884;48.616;12.872;2023-12-28T11:27:11;11.83;;;10.10;;
7683;SDS011;3884;48.616;12.872;2023-12-28T11:29:40;15.97;;;11.10;;
7683;SDS011;3884;48.616;12.872;2023-12-28T11:32:09;9.93;;;8.60;;
7683;SDS011;3884;48.616;12.872;2023-12-28T11:34:36;9.40;;;8.40;;
7683;SDS011;3884;48.616;12.872;2023-12-28T11:37:04;9.50;;;8.17;;
7683;SDS011;3884;48.616;12.872;2023-12-28T11:39:32;9.33;;;7.50;;
7683;SDS011;3884;48.616;12.872;2023-12-28T11:42:04;9.03;;;7.43;;
7683;SDS011;3884;48.616;12.872;2023-12-28T11:44:37;9.03;;;7.63;;
7683;SDS011;3884;48.616;12.872;2023-12-28T11:47:12;9.23;;;7.57;;
7683;SDS011;3884;48.616;12.872;2023-12-28T11:49:39;13.83;;;10.60;;
7683;SDS011;3884;48.616;12.872;2023-12-28T11:52:06;10.53;;;8.70;;
7683;SDS011;3884;48.616;12.872;2023-12-28T11:54:36;7.40;;;6.53;;
7683;SDS011;3884;48.616;12.872;2023-12-28T11:57:03;13.20;;;8.67;;
7683;SDS011;3884;48.616;12.872;2023-12-28T11:59:31;14.27;;;10.23;;
7683;SDS011;3884;48.616;12.872;2023-12-28T12:01:58;10.07;;;8.97;;
7683;SDS011;3884;48.616;12.872;2023-12-28T12:04:27;12.97;;;9.20;;
7683;SDS011;3884;48.616;12.872;2023-12-28T12:06:54;11.93;;;10.23;;
7683;SDS011;3884;48.616;12.872;2023-12-28T12:09:23;12.37;;;10.40;;
7683;SDS011;3884;48.616;12.872;2023-12-28T12:11:51;14.17;;;11.87;;
7683;SDS011;3884;48.616;12.872;2023-12-28T12:14:19;11.50;;;9.83;;
7683;SDS011;3884;48.616;12.872;2023-12-28T12:16:59;17.57;;;12.00;;
7683;SDS011;3884;48.616;12.872;2023-12-28T12:19:30;19.80;;;14.20;;
7683;SDS011;3884;48.616;12.872;2023-12-28T12:21:59;12.93;;;10.77;;
7683;SDS011;3884;48.616;12.872;2023-12-28T12:24:34;12.23;;;10.83;;
7683;SDS011;3884;48.616;12.872;2023-12-28T12:27:03;12.00;;;9.37;;
7683;SDS011;3884;48.616;12.872;2023-12-28T12:29:30;9.23;;;8.23;;
7683;SDS011;3884;48.616;12.872;2023-12-28T12:31:57;8.43;;;7.57;;
7683;SDS011;3884;48.616;12.872;2023-12-28T12:34:24;8.93;;;7.70;;
7683;SDS011;3884;48.616;12.872;2023-12-28T12:36:53;8.33;;;7.33;;
7683;SDS011;3884;48.616;12.872;2023-12-28T12:39:22;11.03;;;7.70;;
7683;SDS011;3884;48.616;12.872;2023-12-28T12:41:50;9.30;;;7.73;;
7683;SDS011;3884;48.616;12.872;2023-12-28T12:44:19;11.10;;;8.83;;
7683;SDS011;3884;48.616;12.872;2023-12-28T12:46:46;12.80;;;9.67;;
7683;SDS011;3884;48.616;12.872;2023-12-28T12:49:15;8.57;;;7.33;;
7683;SDS011;3884;48.616;12.872;2023-12-28T12:51:42;10.77;;;8.13;;
7683;SDS011;3884;48.616;12.872;2023-12-28T12:54:13;10.37;;;8.00;;
7683;SDS011;3884;48.616;12.872;2023-12-28T12:56:44;8.37;;;7.30;;
7683;SDS011;3884;48.616;12.872;2023-12-28T12:59:11;10.17;;;8.73;;
7683;SDS011;3884;48.616;12.872;2023-12-28T13:01:42;11.43;;;8.53;;
7683;SDS011;3884;48.616;12.872;2023-12-28T13:04:10;9.73;;;8.30;;
7683;SDS011;3884;48.616;12.872;2023-12-28T13:06:39;23.40;;;16.13;;
7683;SDS011;3884;48.616;12.872;2023-12-28T13:09:06;12.50;;;10.10;;
7683;SDS011;3884;48.616;12.872;2023-12-28T13:11:37;11.47;;;9.97;;
7683;SDS011;3884;48.616;12.872;2023-12-28T13:14:04;11.23;;;10.10;;
7683;SDS011;3884;48.616;12.872;2023-12-28T13:16:32;10.10;;;8.97;;
7683;SDS011;3884;48.616;12.872;2023-12-28T13:19:00;10.57;;;9.47;;
7683;SDS011;3884;48.616;12.872;2023-12-28T13:21:27;12.23;;;10.93;;
7683;SDS011;3884;48.616;12.872;2023-12-28T13:23:55;31.83;;;22.30;;
7683;SDS011;3884;48.616;12.872;2023-12-28T13:26:24;25.93;;;19.67;;
7683;SDS011;3884;48.616;12.872;2023-12-28T13:28:53;17.50;;;15.23;;
7683;SDS011;3884;48.616;12.872;2023-12-28T13:36:45;72.50;;;44.57;;
7683;SDS011;3884;48.616;12.872;2023-12-28T13:39:14;84.43;;;49.87;;
7683;SDS011;3884;48.616;12.872;2023-12-28T13:41:42;40.23;;;25.97;;
7683;SDS011;3884;48.616;12.872;2023-12-28T13:44:11;19.30;;;15.47;;
7683;SDS011;3884;48.616;12.872;2023-12-28T13:46:38;15.90;;;13.60;;
7683;SDS011;3884;48.616;12.872;2023-12-28T13:49:05;18.53;;;13.03;;
7683;SDS011;3884;48.616;12.872;2023-12-28T13:51:32;17.87;;;14.47;;
7683;SDS011;3884;48.616;12.872;2023-12-28T13:54:00;20.30;;;14.93;;
7683;SDS011;3884;48.616;12.872;2023-12-28T13:56:27;16.00;;;12.83;;
7683;SDS011;3884;48.616;12.872;2023-12-28T13:58:54;15.87;;;12.80;;
7683;SDS011;3884;48.616;12.872;2023-12-28T14:01:22;15.00;;;12.97;;
7683;SDS011;3884;48.616;12.872;2023-12-28T14:03:49;13.13;;;11.80;;
7683;SDS011;3884;48.616;12.872;2023-12-28T14:06:17;13.80;;;11.17;;
7683;SDS011;3884;48.616;12.872;2023-12-28T14:08:44;12.93;;;11.33;;
7683;SDS011;3884;48.616;12.872;2023-12-28T14:11:13;12.80;;;10.67;;
7683;SDS011;3884;48.616;12.872;2023-12-28T14:13:41;12.87;;;11.43;;
7683;SDS011;3884;48.616;12.872;2023-12-28T14:16:09;15.33;;;10.63;;
7683;SDS011;3884;48.616;12.872;2023-12-28T14:18:38;11.47;;;10.37;;
7683;SDS011;3884;48.616;12.872;2023-12-28T14:21:07;12.00;;;10.80;;
7683;SDS011;3884;48.616;12.872;2023-12-28T14:23:34;11.80;;;10.60;;
7683;SDS011;3884;48.616;12.872;2023-12-28T14:26:02;11.60;;;10.40;;
7683;SDS011;3884;48.616;12.872;2023-12-28T14:28:31;12.50;;;10.03;;
7683;SDS011;3884;48.616;12.872;2023-12-28T14:30:59;13.17;;;9.90;;
7683;SDS011;3884;48.616;12.872;2023-12-28T14:33:26;11.33;;;10.13;;
7683;SDS011;3884;48.616;12.872;2023-12-28T14:35:57;11.30;;;9.93;;
7683;SDS011;3884;48.616;12.872;2023-12-28T14:38:25;12.23;;;10.00;;
7683;SDS011;3884;48.616;12.872;2023-12-28T14:40:51;13.80;;;10.50;;
7683;SDS011;3884;48.616;12.872;2023-12-28T14:43:19;11.63;;;10.23;;
7683;SDS011;3884;48.616;12.872;2023-12-28T14:45:46;12.47;;;11.13;;